Time;durP1;ratioP1;P1;durP2;ratioP2;P2;SDS_P1;SDS_P2;PMS_P1;PMS_P2;Temp;Humidity;BMP_temperature;BMP_pressure;BME280_temperature;BME280_humidity;BME280_pressure;Samples;Min_cycle;Max_cycle;Signal;HPM_P1;HPM_P2
2022/09/04 00:02:37;;;;;;;4.50;3.30;;;20.10;86.50;;;;;;5094122;28;20190;-86
2022/09/04 00:05:24;;;;;;;3.65;3.38;;;20.00;87.80;;;;;;5088199;28;20247;-85
2022/09/04 00:08:13;;;;;;;3.67;3.42;;;19.90;88.30;;;;;;5091187;28;20183;-84
2022/09/04 00:10:56;;;;;;;3.40;3.20;;;20.00;88.00;;;;;;5089878;28;20236;-84
2022/09/04 00:13:30;;;;;;;3.40;3.17;;;20.10;87.20;;;;;;5090406;28;20292;-84
2022/09/04 00:16:10;;;;;;;4.93;3.63;;;20.00;86.90;;;;;;5085172;28;20622;-85
2022/09/04 00:18:40;;;;;;;3.65;3.35;;;20.00;87.30;;;;;;5088521;28;20255;-85
2022/09/04 00:21:20;;;;;;;3.83;3.50;;;19.90;87.50;;;;;;5088762;28;20193;-84
2022/09/04 00:23:58;;;;;;;3.97;3.20;;;19.90;87.10;;;;;;5085246;28;20228;-85
2022/09/04 00:26:42;;;;;;;3.40;3.17;;;19.90;88.00;;;;;;5091552;28;20208;-85
2022/09/04 00:29:22;;;;;;;3.88;3.50;;;19.90;88.40;;;;;;5086845;28;20209;-85
2022/09/04 00:32:07;;;;;;;3.65;3.33;;;20.00;88.70;;;;;;5090011;28;20219;-84
2022/09/04 00:34:51;;;;;;;3.42;3.15;;;19.90;88.70;;;;;;5088876;28;20314;-83
2022/09/04 00:37:21;;;;;;;3.88;3.45;;;20.00;88.20;;;;;;5084861;28;20209;-84
2022/09/04 00:39:55;;;;;;;3.60;3.30;;;20.00;88.60;;;;;;5081344;28;20273;-84
2022/09/04 00:42:27;;;;;;;3.63;3.38;;;20.00;88.40;;;;;;5088808;28;20190;-84
2022/09/04 00:45:02;;;;;;;3.50;3.20;;;19.90;87.20;;;;;;5089213;28;20450;-84
2022/09/04 00:48:05;;;;;;;5.35;3.25;;;19.80;87.10;;;;;;5089791;28;20213;-83
2022/09/04 00:50:45;;;;;;;3.45;3.25;;;19.70;87.60;;;;;;5089074;28;20187;-84
2022/09/04 00:53:28;;;;;;;3.60;3.30;;;19.60;87.80;;;;;;5086816;28;20183;-84
2022/09/04 00:56:14;;;;;;;3.45;3.25;;;19.50;88.10;;;;;;5084989;28;20275;-85
2022/09/04 00:59:24;;;;;;;3.50;3.28;;;19.50;88.20;;;;;;5087652;28;20179;-85
2022/09/04 01:01:55;;;;;;;3.53;3.22;;;19.50;89.30;;;;;;5080543;28;20187;-84
2022/09/04 01:04:56;;;;;;;3.65;3.22;;;19.50;88.90;;;;;;5082148;28;20196;-84
2022/09/04 01:07:41;;;;;;;3.40;3.10;;;19.50;88.80;;;;;;5084618;28;20199;-84
2022/09/04 01:10:14;;;;;;;3.33;3.03;;;19.60;88.00;;;;;;5091744;28;20186;-84
2022/09/04 01:13:00;;;;;;;3.95;3.50;;;19.50;87.70;;;;;;5088222;28;20261;-84
2022/09/04 01:15:55;;;;;;;3.30;3.10;;;19.60;87.30;;;;;;5085195;28;20214;-84
2022/09/04 01:18:40;;;;;;;3.75;3.45;;;19.60;86.90;;;;;;5082443;28;20223;-84
2022/09/04 01:21:29;;;;;;;3.70;3.40;;;19.60;87.20;;;;;;5085890;28;20669;-84
2022/09/04 01:24:31;;;;;;;4.07;3.15;;;19.70;87.10;;;;;;5084302;28;20190;-84
2022/09/04 01:27:12;;;;;;;4.53;3.47;;;19.70;86.70;;;;;;5082939;28;20260;-85
2022/09/04 01:29:55;;;;;;;4.80;3.35;;;19.50;87.30;;;;;;5085034;28;20190;-85
2022/09/04 01:32:35;;;;;;;3.50;3.20;;;19.40;87.70;;;;;;5091260;28;20177;-83
2022/09/04 01:35:16;;;;;;;4.30;3.17;;;19.30;87.40;;;;;;5086909;28;20228;-83
2022/09/04 01:38:02;;;;;;;4.05;3.75;;;19.40;86.90;;;;;;5091490;28;20194;-85
2022/09/04 01:40:59;;;;;;;4.70;3.58;;;19.50;86.60;;;;;;5085865;28;20225;-84
2022/09/04 01:43:25;;;;;;;3.20;2.90;;;19.50;86.40;;;;;;5088912;28;20197;-83
2022/09/04 01:46:22;;;;;;;3.22;3.03;;;19.50;86.80;;;;;;5096527;28;20218;-85
2022/09/04 01:49:02;;;;;;;4.35;3.15;;;19.50;86.70;;;;;;5090185;28;20240;-84
2022/09/04 01:51:51;;;;;;;4.72;2.97;;;19.40;86.80;;;;;;5091700;28;20189;-86
2022/09/04 01:54:44;;;;;;;3.60;3.30;;;19.40;87.00;;;;;;5093903;28;20209;-85
2022/09/04 01:57:48;;;;;;;4.25;3.63;;;19.40;86.90;;;;;;5087061;28;20260;-84
2022/09/04 02:00:18;;;;;;;3.63;3.30;;;19.50;86.80;;;;;;5088820;28;20243;-85
2022/09/04 02:03:02;;;;;;;3.15;2.90;;;19.40;86.90;;;;;;5093438;28;20543;-85
2022/09/04 02:06:02;;;;;;;3.42;3.22;;;19.40;86.80;;;;;;5096282;28;20207;-85
2022/09/04 02:09:09;;;;;;;4.65;3.17;;;19.40;86.30;;;;;;5092781;28;20184;-85
2022/09/04 02:11:37;;;;;;;3.42;3.10;;;19.40;86.80;;;;;;5088926;28;20213;-84
2022/09/04 02:14:21;;;;;;;3.88;3.22;;;19.30;87.30;;;;;;5103224;28;20234;-85
2022/09/04 02:17:22;;;;;;;4.65;3.30;;;19.30;87.20;;;;;;5100249;28;20169;-85
2022/09/04 02:20:06;;;;;;;4.97;3.20;;;19.40;86.80;;;;;;5121986;28;20201;-86
2022/09/04 02:22:43;;;;;;;3.15;2.92;;;19.30;87.40;;;;;;5091398;28;20183;-84
2022/09/04 02:25:47;;;;;;;3.00;2.80;;;19.30;86.90;;;;;;5081000;28;20209;-84
2022/09/04 02:28:32;;;;;;;3.60;3.30;;;19.30;86.30;;;;;;5090729;28;20199;-86
2022/09/04 02:31:19;;;;;;;3.53;3.20;;;19.30;86.70;;;;;;5090749;28;20658;-84
2022/09/04 02:34:04;;;;;;;3.40;3.10;;;19.30;86.80;;;;;;5094689;28;20191;-84
2022/09/04 02:36:46;;;;;;;3.33;3.03;;;19.20;87.00;;;;;;5089200;28;20188;-84
2022/09/04 02:39:44;;;;;;;3.13;2.92;;;19.20;87.10;;;;;;5087399;28;20207;-84
2022/09/04 02:42:50;;;;;;;4.03;3.20;;;19.20;87.50;;;;;;5086323;28;20271;-84
2022/09/04 02:45:20;;;;;;;3.35;3.05;;;19.20;87.00;;;;;;5088329;28;20201;-84
2022/09/04 02:48:03;;;;;;;3.30;3.00;;;19.20;86.80;;;;;;5083781;28;20275;-84
2022/09/04 02:50:45;;;;;;;4.32;3.20;;;19.30;87.00;;;;;;5097653;28;20314;-84
2022/09/04 02:53:32;;;;;;;4.28;3.13;;;19.20;87.10;;;;;;5098152;28;20182;-84
2022/09/04 02:56:21;;;;;;;5.03;2.97;;;19.20;87.40;;;;;;5095033;28;20211;-85
2022/09/04 02:59:14;;;;;;;4.65;3.40;;;19.20;87.80;;;;;;5099728;28;20254;-83
2022/09/04 03:02:20;;;;;;;3.88;3.40;;;19.00;88.10;;;;;;5095719;28;20201;-85
2022/09/04 03:04:56;;;;;;;2.85;2.67;;;18.80;89.40;;;;;;5034822;28;20297;-84
2022/09/04 03:07:52;;;;;;;3.47;3.17;;;18.80;89.00;;;;;;5090029;28;20199;-84
2022/09/04 03:10:34;;;;;;;5.05;3.03;;;18.90;88.80;;;;;;5096643;28;20206;-85
2022/09/04 03:13:09;;;;;;;4.95;3.35;;;18.80;88.70;;;;;;5098281;28;20191;-83
2022/09/04 03:16:03;;;;;;;5.60;3.20;;;18.80;89.00;;;;;;5098439;28;20198;-84
2022/09/04 03:18:57;;;;;;;3.35;3.05;;;18.90;88.60;;;;;;5097445;28;20191;-85
2022/09/04 03:21:31;;;;;;;3.67;3.22;;;18.80;88.20;;;;;;5087906;28;20222;-85
2022/09/04 03:24:05;;;;;;;4.05;3.10;;;18.80;88.50;;;;;;5101253;28;20289;-85
2022/09/04 03:26:45;;;;;;;3.47;3.17;;;18.80;88.10;;;;;;5095984;28;20186;-85
2022/09/04 03:29:22;;;;;;;3.45;2.90;;;18.90;88.40;;;;;;5099400;28;20175;-85
2022/09/04 03:31:59;;;;;;;3.70;3.38;;;18.90;87.70;;;;;;5099027;28;20651;-84
2022/09/04 03:34:41;;;;;;;3.83;3.03;;;18.90;87.50;;;;;;5097637;28;20207;-84
2022/09/04 03:37:19;;;;;;;3.22;3.00;;;18.80;87.60;;;;;;5100803;28;20888;-85
2022/09/04 03:39:48;;;;;;;4.85;3.10;;;18.80;87.60;;;;;;5099314;28;20183;-86
2022/09/04 03:42:16;;;;;;;3.08;2.88;;;18.80;87.80;;;;;;5099933;28;20185;-86
2022/09/04 03:44:54;;;;;;;4.45;3.15;;;18.80;87.60;;;;;;5099614;28;20267;-85
2022/09/04 03:47:58;;;;;;;4.18;3.03;;;18.80;87.50;;;;;;5100150;28;20976;-84
2022/09/04 03:50:42;;;;;;;3.10;2.90;;;18.80;87.20;;;;;;5097355;28;20199;-84
2022/09/04 03:53:43;;;;;;;3.22;3.03;;;18.70;87.30;;;;;;5096232;28;20274;-84
2022/09/04 03:56:37;;;;;;;3.33;2.90;;;18.70;87.50;;;;;;5074308;28;20216;-84
2022/09/04 03:59:12;;;;;;;3.20;3.00;;;18.70;88.10;;;;;;5087653;28;20268;-85
2022/09/04 04:02:01;;;;;;;3.25;3.00;;;18.70;88.00;;;;;;5095865;28;20183;-84
2022/09/04 04:05:02;;;;;;;3.40;3.10;;;18.70;87.50;;;;;;5095742;28;20205;-83
2022/09/04 04:07:36;;;;;;;6.18;2.90;;;18.60;87.70;;;;;;5096546;28;20222;-85
2022/09/04 04:10:23;;;;;;;4.47;3.00;;;18.60;88.00;;;;;;5096142;28;20187;-85
2022/09/04 04:13:40;;;;;;;3.72;2.90;;;18.50;88.20;;;;;;5098980;28;20195;-84
2022/09/04 04:16:11;;;;;;;3.22;3.03;;;18.60;88.00;;;;;;5037516;28;20652;-85
2022/09/04 04:18:54;;;;;;;3.55;3.25;;;18.50;88.50;;;;;;5086089;28;20267;-83
2022/09/04 04:21:54;;;;;;;3.67;3.33;;;18.50;88.50;;;;;;5095736;28;20186;-84
2022/09/04 04:24:58;;;;;;;4.57;3.10;;;18.50;88.00;;;;;;5094470;28;20175;-85
2022/09/04 04:27:51;;;;;;;5.40;3.20;;;18.40;88.20;;;;;;5097247;28;20213;-85
2022/09/04 04:30:18;;;;;;;3.50;2.97;;;18.40;88.20;;;;;;5090387;28;20191;-84
2022/09/04 04:33:02;;;;;;;3.92;3.38;;;18.40;88.00;;;;;;5087359;28;20190;-83
2022/09/04 04:35:37;;;;;;;3.33;2.90;;;18.40;87.70;;;;;;5088349;28;20218;-84
2022/09/04 04:38:55;;;;;;;3.45;3.10;;;18.40;87.70;;;;;;5097401;28;20178;-84
2022/09/04 04:42:04;;;;;;;3.10;2.80;;;18.40;87.40;;;;;;5065164;28;20191;-85
2022/09/04 04:48:00;;;;;;;7.10;3.22;;;18.30;87.00;;;;;;5094433;28;20678;-85
2022/09/04 04:51:05;;;;;;;3.00;2.80;;;18.20;87.50;;;;;;5094569;28;20186;-84
2022/09/04 04:53:34;;;;;;;3.45;3.22;;;18.20;87.40;;;;;;5087454;28;20176;-85
2022/09/04 04:56:35;;;;;;;3.83;3.40;;;18.20;88.70;;;;;;5090951;28;20270;-85
2022/09/04 04:59:28;;;;;;;4.65;3.05;;;18.20;87.90;;;;;;5089231;28;20178;-84
2022/09/04 05:02:27;;;;;;;4.22;3.83;;;18.10;88.90;;;;;;5090062;28;20270;-85
2022/09/04 05:05:12;;;;;;;3.30;3.10;;;18.20;88.40;;;;;;5100337;28;20207;-84
2022/09/04 05:07:52;;;;;;;3.33;3.08;;;18.30;88.80;;;;;;5088955;28;20261;-85
2022/09/04 05:10:36;;;;;;;4.00;3.70;;;18.20;88.70;;;;;;5095936;28;20267;-85
2022/09/04 05:13:24;;;;;;;4.07;3.60;;;18.20;88.50;;;;;;5093206;28;20694;-85
2022/09/04 05:16:27;;;;;;;5.28;3.47;;;18.20;89.00;;;;;;5093175;28;20242;-83
2022/09/04 05:19:19;;;;;;;3.65;3.30;;;18.20;88.80;;;;;;5096047;28;20313;-84
2022/09/04 05:22:23;;;;;;;4.75;3.80;;;18.30;89.60;;;;;;5065461;28;20555;-83
2022/09/04 05:25:06;;;;;;;3.90;3.60;;;18.40;89.40;;;;;;5097677;28;20210;-84
2022/09/04 05:27:38;;;;;;;4.70;3.83;;;18.40;89.60;;;;;;5089988;28;20209;-84
2022/09/04 05:30:22;;;;;;;4.13;3.83;;;18.40;90.30;;;;;;5097396;28;20202;-84
2022/09/04 05:33:17;;;;;;;3.75;3.45;;;18.40;90.60;;;;;;5097215;28;20328;-84
2022/09/04 05:35:48;;;;;;;3.67;3.38;;;18.40;90.30;;;;;;5090318;28;20210;-86
2022/09/04 05:38:42;;;;;;;3.72;3.42;;;18.40;89.70;;;;;;5089923;28;20643;-84
2022/09/04 05:41:33;;;;;;;4.72;3.90;;;18.40;90.00;;;;;;5089671;28;20186;-85
2022/09/04 05:44:13;;;;;;;3.83;3.53;;;18.40;90.10;;;;;;5094105;28;20291;-84
2022/09/04 05:46:50;;;;;;;4.25;3.85;;;18.30;90.70;;;;;;5094267;28;20328;-84
2022/09/04 05:49:45;;;;;;;3.85;3.55;;;18.40;91.10;;;;;;5096816;28;20182;-83
2022/09/04 05:52:37;;;;;;;3.70;3.40;;;18.40;91.00;;;;;;5095934;28;20194;-86
2022/09/04 05:55:40;;;;;;;5.85;3.90;;;18.50;91.20;;;;;;5089059;28;20264;-86
2022/09/04 05:58:12;;;;;;;4.20;3.90;;;18.40;91.90;;;;;;5095388;28;20187;-84
2022/09/04 06:00:52;;;;;;;4.25;3.80;;;18.40;92.20;;;;;;5094023;28;20183;-86
2022/09/04 06:03:45;;;;;;;4.03;3.70;;;18.50;92.40;;;;;;5093464;28;20187;-85
2022/09/04 06:06:21;;;;;;;4.57;4.18;;;18.50;93.00;;;;;;5089221;28;20493;-85
2022/09/04 06:09:01;;;;;;;4.47;4.07;;;18.50;93.40;;;;;;5091109;28;20190;-86
2022/09/04 06:11:39;;;;;;;4.28;3.97;;;18.70;93.20;;;;;;5091481;28;20707;-86
2022/09/04 06:14:33;;;;;;;4.25;3.85;;;18.60;93.50;;;;;;5092972;28;20232;-86
2022/09/04 06:16:58;;;;;;;4.78;4.38;;;18.60;93.80;;;;;;5093974;28;20854;-84
2022/09/04 06:19:39;;;;;;;5.50;4.43;;;18.70;93.80;;;;;;5093556;28;20211;-85
2022/09/04 06:22:31;;;;;;;5.28;4.88;;;18.70;94.90;;;;;;5097275;28;20190;-86
2022/09/04 06:25:08;;;;;;;5.85;5.32;;;18.70;95.60;;;;;;5089873;28;20207;-86
2022/09/04 06:27:42;;;;;;;6.38;5.88;;;18.70;96.30;;;;;;5099681;28;20368;-85
2022/09/04 06:30:12;;;;;;;5.63;5.22;;;18.70;97.40;;;;;;5095077;28;20221;-85
2022/09/04 06:32:53;;;;;;;6.00;5.50;;;18.70;97.40;;;;;;5103356;28;20608;-85
2022/09/04 06:35:27;;;;;;;6.25;5.63;;;18.70;97.50;;;;;;5101830;28;20210;-85
2022/09/04 06:38:14;;;;;;;6.57;6.07;;;18.80;97.70;;;;;;5101817;28;20186;-87
2022/09/04 06:40:40;;;;;;;5.60;5.20;;;18.70;98.40;;;;;;5095219;28;20179;-86
2022/09/04 06:43:15;;;;;;;8.18;6.72;;;18.70;98.40;;;;;;5100388;28;20174;-86
2022/09/04 06:46:01;;;;;;;6.75;6.15;;;18.80;98.80;;;;;;5091182;28;20946;-87
2022/09/04 06:48:36;;;;;;;6.63;6.07;;;18.60;99.90;;;;;;5090016;28;20248;-87
2022/09/04 06:51:11;;;;;;;6.05;5.55;;;18.50;99.90;;;;;;5093800;28;20224;-86
2022/09/04 06:53:52;;;;;;;7.07;6.47;;;18.70;99.80;;;;;;5097965;28;20210;-85
2022/09/04 06:56:54;;;;;;;7.13;6.53;;;18.80;99.90;;;;;;5094425;28;20241;-86
2022/09/04 06:59:46;;;;;;;7.00;6.45;;;18.80;99.90;;;;;;5092863;28;20550;-86
2022/09/04 07:02:50;;;;;;;8.07;7.28;;;18.80;99.90;;;;;;5095901;28;20663;-86
2022/09/04 07:05:34;;;;;;;7.85;7.03;;;18.80;99.90;;;;;;5091837;28;20216;-87
2022/09/04 07:08:41;;;;;;;7.35;6.75;;;18.80;99.90;;;;;;5094728;28;20187;-86
2022/09/04 07:11:28;;;;;;;6.88;6.28;;;18.90;99.90;;;;;;5021821;28;20272;-86
2022/09/04 07:13:56;;;;;;;7.68;7.00;;;18.90;99.90;;;;;;5021438;28;20282;-87
2022/09/04 07:16:33;;;;;;;7.35;6.75;;;18.90;99.90;;;;;;5062325;28;20230;-85
2022/09/04 07:19:39;;;;;;;7.68;6.97;;;18.90;99.90;;;;;;5098767;28;20230;-86
2022/09/04 07:22:23;;;;;;;7.28;6.20;;;18.80;99.90;;;;;;5079811;28;20205;-86
2022/09/04 07:24:55;;;;;;;7.00;6.43;;;18.70;99.90;;;;;;5090865;28;20206;-86
2022/09/04 07:27:43;;;;;;;6.47;5.97;;;18.80;99.90;;;;;;5095144;28;20231;-86
2022/09/04 07:30:14;;;;;;;6.25;5.75;;;18.80;99.90;;;;;;5095989;28;20198;-85
2022/09/04 07:33:27;;;;;;;7.53;6.88;;;18.90;99.90;;;;;;5090265;28;20199;-85
2022/09/04 07:36:02;;;;;;;6.75;6.15;;;19.20;99.90;;;;;;5037040;28;20355;-85
2022/09/04 07:38:44;;;;;;;8.23;6.80;;;19.50;99.90;;;;;;5036805;28;20261;-87
2022/09/04 07:41:30;;;;;;;6.75;6.25;;;19.60;99.90;;;;;;5070814;28;20195;-89
2022/09/04 07:44:16;;;;;;;6.97;6.38;;;19.60;99.90;;;;;;5093420;28;20244;-86
2022/09/04 07:46:50;;;;;;;7.50;6.90;;;19.80;99.60;;;;;;5098204;28;20199;-85
2022/09/04 07:49:27;;;;;;;7.05;6.32;;;19.80;99.90;;;;;;5093812;28;20250;-85
2022/09/04 07:51:57;;;;;;;6.40;5.93;;;19.80;99.90;;;;;;5096918;28;20187;-88
2022/09/04 07:54:26;;;;;;;5.78;5.38;;;20.00;99.60;;;;;;5092361;28;20192;-86
2022/09/04 07:57:21;;;;;;;6.95;6.32;;;20.10;98.60;;;;;;5094345;28;20718;-85
2022/09/04 08:00:07;;;;;;;6.75;6.25;;;20.30;98.10;;;;;;5088229;28;20241;-86
2022/09/04 08:03:00;;;;;;;6.90;6.30;;;20.40;99.00;;;;;;5090950;28;20175;-87
2022/09/04 08:05:31;;;;;;;7.15;6.65;;;20.40;97.90;;;;;;5090423;28;20428;-86
2022/09/04 08:08:34;;;;;;;6.45;5.95;;;20.50;98.70;;;;;;5090569;28;20642;-88
2022/09/04 08:11:26;;;;;;;6.45;5.97;;;20.60;98.10;;;;;;5083441;28;20715;-86
2022/09/04 08:14:11;;;;;;;6.47;5.97;;;20.70;96.20;;;;;;5092970;28;20378;-88
2022/09/04 08:16:55;;;;;;;5.85;5.35;;;20.80;96.30;;;;;;5088839;28;20559;-87
2022/09/04 08:19:30;;;;;;;6.18;5.63;;;21.00;94.90;;;;;;5088307;28;20216;-87
2022/09/04 08:21:56;;;;;;;6.32;5.72;;;21.10;94.80;;;;;;5090398;28;20183;-86
2022/09/04 08:25:00;;;;;;;6.32;5.93;;;21.20;94.20;;;;;;5086812;28;20243;-86
2022/09/04 08:27:50;;;;;;;6.68;6.18;;;21.30;94.50;;;;;;5096199;28;20723;-86
2022/09/04 08:30:19;;;;;;;6.18;5.70;;;21.40;93.80;;;;;;5090290;28;20199;-87
2022/09/04 08:33:09;;;;;;;6.32;5.82;;;21.50;94.00;;;;;;5092810;28;20199;-86
2022/09/04 08:35:54;;;;;;;6.50;6.10;;;21.70;92.80;;;;;;5054793;28;20227;-86
2022/09/04 08:38:55;;;;;;;7.30;6.68;;;21.70;91.80;;;;;;5087674;28;20174;-88
2022/09/04 08:41:32;;;;;;;8.15;6.00;;;21.80;92.40;;;;;;5087440;28;20191;-86
2022/09/04 08:44:19;;;;;;;5.53;5.13;;;21.80;92.50;;;;;;5090217;28;20246;-88
2022/09/04 08:46:51;;;;;;;6.40;5.95;;;22.20;88.90;;;;;;5092232;28;20193;-86
2022/09/04 08:49:23;;;;;;;6.53;5.93;;;22.20;89.30;;;;;;5097239;28;20182;-86
2022/09/04 08:52:26;;;;;;;5.28;4.88;;;22.20;89.30;;;;;;5093241;28;20183;-86
2022/09/04 08:55:01;;;;;;;5.95;5.43;;;22.30;88.60;;;;;;5087278;28;20209;-87
2022/09/04 08:57:45;;;;;;;6.20;5.68;;;22.30;88.40;;;;;;5092133;28;20214;-86
2022/09/04 09:00:14;;;;;;;5.15;4.70;;;22.30;89.20;;;;;;5091155;28;20241;-86
2022/09/04 09:02:51;;;;;;;5.68;5.28;;;22.40;88.70;;;;;;5095928;28;20188;-87
2022/09/04 09:05:39;;;;;;;5.60;5.22;;;22.70;86.50;;;;;;5093641;28;20203;-87
2022/09/04 09:08:22;;;;;;;5.35;4.88;;;22.80;83.80;;;;;;5099040;28;20189;-88
2022/09/04 09:11:02;;;;;;;5.43;5.03;;;23.10;85.00;;;;;;5093646;28;20202;-87
2022/09/04 09:13:47;;;;;;;5.05;4.47;;;23.30;83.00;;;;;;5098050;28;20186;-86
2022/09/04 09:16:21;;;;;;;4.85;4.55;;;23.60;81.40;;;;;;5089248;28;20301;-87
2022/09/04 09:19:32;;;;;;;4.30;4.00;;;23.80;79.50;;;;;;5093476;28;20191;-86
2022/09/04 09:22:27;;;;;;;4.93;4.47;;;23.90;76.10;;;;;;5083933;28;20187;-86
2022/09/04 09:25:08;;;;;;;3.97;3.55;;;24.10;75.40;;;;;;5095398;28;20214;-88
2022/09/04 09:28:06;;;;;;;6.57;3.72;;;24.20;70.40;;;;;;5098738;28;20171;-86
2022/09/04 09:30:55;;;;;;;4.32;4.03;;;24.40;72.80;;;;;;5027281;28;20201;-86
2022/09/04 09:33:48;;;;;;;4.18;3.88;;;24.60;74.00;;;;;;5088503;28;20187;-86
2022/09/04 09:36:44;;;;;;;4.45;4.05;;;24.50;73.70;;;;;;5091808;28;20245;-87
2022/09/04 09:39:44;;;;;;;4.05;3.75;;;24.70;71.70;;;;;;5087964;28;20179;-86
2022/09/04 09:42:48;;;;;;;4.10;3.85;;;24.80;71.50;;;;;;5097201;28;20238;-87
2022/09/04 09:45:34;;;;;;;4.15;3.75;;;24.70;71.60;;;;;;5096168;28;20690;-88
2022/09/04 09:48:28;;;;;;;4.45;3.97;;;24.90;71.00;;;;;;5095388;28;20179;-89
2022/09/04 09:51:24;;;;;;;4.95;3.90;;;25.30;69.90;;;;;;5096726;28;20178;-87
2022/09/04 09:54:14;;;;;;;5.05;3.80;;;25.60;66.80;;;;;;5096909;28;20286;-86
2022/09/04 09:57:17;;;;;;;4.22;3.85;;;25.60;65.60;;;;;;5094247;28;20192;-88
2022/09/04 09:59:43;;;;;;;4.07;3.78;;;25.80;66.00;;;;;;5090551;28;20203;-86
2022/09/04 10:02:39;;;;;;;3.88;3.58;;;25.50;67.10;;;;;;5099518;28;20179;-85
2022/09/04 10:05:13;;;;;;;4.05;3.65;;;25.80;64.90;;;;;;5097467;28;20406;-86
2022/09/04 10:07:53;;;;;;;4.25;4.00;;;26.10;62.80;;;;;;5095188;28;20216;-88
2022/09/04 10:10:53;;;;;;;3.70;3.40;;;26.30;61.50;;;;;;5096968;28;20195;-85
2022/09/04 10:13:52;;;;;;;4.03;3.67;;;26.50;60.80;;;;;;5100609;28;20246;-87
2022/09/04 10:16:43;;;;;;;3.58;3.30;;;26.50;61.80;;;;;;5102352;28;20225;-85
2022/09/04 10:19:15;;;;;;;4.00;3.70;;;26.70;60.10;;;;;;5096996;28;20231;-86
2022/09/04 10:22:07;;;;;;;3.80;3.50;;;26.40;59.10;;;;;;5092596;28;21694;-88
2022/09/04 10:24:39;;;;;;;4.38;3.55;;;26.40;59.20;;;;;;5096102;28;20210;-85
2022/09/04 10:27:27;;;;;;;3.92;3.63;;;26.30;61.00;;;;;;5102173;28;20264;-86
2022/09/04 10:30:03;;;;;;;3.50;3.22;;;26.30;60.40;;;;;;5096739;28;20202;-87
2022/09/04 10:32:38;;;;;;;4.13;3.75;;;26.10;60.20;;;;;;5093623;28;20190;-85
2022/09/04 10:35:25;;;;;;;4.32;3.80;;;26.40;59.20;;;;;;5093098;28;20245;-87
2022/09/04 10:38:19;;;;;;;3.45;3.25;;;27.10;56.80;;;;;;5093472;28;20186;-87
2022/09/04 10:41:23;;;;;;;3.38;3.15;;;27.40;54.40;;;;;;5095543;28;20180;-88
2022/09/04 10:44:50;;;;;;;3.60;3.30;;;27.60;51.00;;;;;;5093942;28;20178;-85
2022/09/04 10:47:23;;;;;;;3.55;3.35;;;27.90;51.30;;;;;;5063398;28;20249;-85
2022/09/04 10:50:13;;;;;;;3.45;3.25;;;27.90;50.40;;;;;;5071812;28;20180;-86
2022/09/04 10:52:41;;;;;;;3.67;3.47;;;27.70;49.50;;;;;;5087780;28;20203;-87
2022/09/04 10:55:30;;;;;;;3.55;3.35;;;27.70;50.20;;;;;;5095979;28;20217;-88
2022/09/04 10:58:17;;;;;;;3.40;3.20;;;28.00;48.20;;;;;;5095621;28;20183;-87
2022/09/04 11:01:03;;;;;;;5.47;3.25;;;28.50;44.70;;;;;;5093177;28;20172;-87
2022/09/04 11:04:00;;;;;;;3.60;3.40;;;28.20;43.20;;;;;;5073982;28;20191;-86
2022/09/04 11:06:57;;;;;;;3.50;3.20;;;28.40;45.30;;;;;;5074795;28;20210;-88
2022/09/04 11:09:41;;;;;;;3.70;3.50;;;28.70;42.20;;;;;;5064660;28;20225;-88
2022/09/04 11:12:23;;;;;;;3.65;3.45;;;29.00;43.60;;;;;;5094686;28;20202;-88
2022/09/04 11:14:55;;;;;;;3.90;3.60;;;29.10;44.60;;;;;;5098517;28;20203;-86
2022/09/04 11:17:48;;;;;;;3.58;3.33;;;29.30;42.90;;;;;;5096972;28;20183;-87
2022/09/04 11:20:51;;;;;;;3.40;3.20;;;29.20;41.00;;;;;;5097418;28;20179;-85
2022/09/04 11:23:26;;;;;;;3.33;3.13;;;29.40;43.40;;;;;;5110917;28;20251;-85
2022/09/04 11:26:25;;;;;;;3.60;3.40;;;29.70;41.20;;;;;;5097734;28;20210;-86
2022/09/04 11:28:50;;;;;;;3.45;3.25;;;29.70;42.70;;;;;;5099481;28;20215;-87
2022/09/04 11:31:19;;;;;;;3.45;3.25;;;28.90;42.70;;;;;;5090027;28;20192;-86
2022/09/04 11:33:56;;;;;;;3.47;3.25;;;28.50;42.80;;;;;;5089527;28;20187;-87
2022/09/04 11:36:51;;;;;;;3.95;3.65;;;28.60;41.20;;;;;;5096309;28;20215;-88
2022/09/04 11:39:45;;;;;;;3.80;3.50;;;28.90;42.20;;;;;;5095178;28;20191;-88
2022/09/04 11:42:30;;;;;;;3.80;3.60;;;29.30;39.90;;;;;;5098473;28;20180;-86
2022/09/04 11:45:15;;;;;;;3.90;3.55;;;29.60;41.30;;;;;;5103182;28;20211;-86
2022/09/04 11:48:05;;;;;;;3.60;3.30;;;30.00;38.40;;;;;;5100245;28;20186;-88
2022/09/04 11:51:00;;;;;;;3.90;3.60;;;29.40;35.20;;;;;;5102994;28;20175;-88
2022/09/04 11:53:59;;;;;;;4.88;3.65;;;29.00;37.60;;;;;;5102701;28;20178;-85
2022/09/04 11:56:52;;;;;;;3.50;3.17;;;29.20;37.60;;;;;;5087997;28;20222;-85
2022/09/04 11:59:37;;;;;;;3.60;3.40;;;29.90;34.30;;;;;;5094723;28;20187;-85
2022/09/04 12:02:36;;;;;;;3.88;3.53;;;30.20;32.00;;;;;;5094113;28;20190;-87
2022/09/04 12:05:10;;;;;;;3.50;3.20;;;30.80;30.90;;;;;;5089853;28;20607;-88
2022/09/04 12:07:45;;;;;;;3.80;3.50;;;30.50;31.20;;;;;;5089502;28;20276;-85
2022/09/04 12:10:27;;;;;;;3.60;3.30;;;30.80;30.30;;;;;;5097044;28;20182;-86
2022/09/04 12:13:36;;;;;;;3.97;3.70;;;31.40;29.70;;;;;;5098293;28;20205;-85
2022/09/04 12:16:40;;;;;;;3.50;3.30;;;31.10;28.40;;;;;;5100807;28;20286;-85
2022/09/04 12:19:28;;;;;;;3.53;3.30;;;31.00;29.30;;;;;;5095348;28;20211;-88
2022/09/04 12:22:15;;;;;;;3.60;3.30;;;31.60;28.00;;;;;;5093797;28;20210;-85
2022/09/04 12:24:59;;;;;;;3.50;3.30;;;31.70;29.30;;;;;;5095010;28;20245;-88
2022/09/04 12:27:53;;;;;;;3.45;3.25;;;31.00;30.30;;;;;;5097928;28;20241;-88
2022/09/04 12:30:31;;;;;;;3.50;3.30;;;30.70;31.20;;;;;;5093997;28;20220;-85
2022/09/04 12:33:21;;;;;;;3.35;3.10;;;31.10;30.60;;;;;;5091919;28;20192;-86
2022/09/04 12:36:23;;;;;;;3.20;3.05;;;30.50;31.60;;;;;;5089775;28;20215;-86
2022/09/04 12:39:23;;;;;;;3.17;2.97;;;30.50;31.60;;;;;;5101811;28;20181;-88
2022/09/04 12:42:15;;;;;;;3.70;3.50;;;30.70;32.10;;;;;;5096429;28;20180;-85
2022/09/04 12:44:54;;;;;;;3.53;3.33;;;31.50;30.00;;;;;;5104403;28;20203;-87
2022/09/04 12:47:27;;;;;;;3.70;3.50;;;31.50;29.90;;;;;;5089585;28;20228;-87
2022/09/04 12:49:58;;;;;;;4.30;3.88;;;32.20;29.10;;;;;;5099880;28;20182;-85
2022/09/04 12:52:39;;;;;;;4.03;3.83;;;32.60;29.40;;;;;;5095234;28;20443;-85
2022/09/04 12:55:29;;;;;;;3.80;3.60;;;32.60;29.60;;;;;;5084359;28;20734;-88
2022/09/04 12:58:16;;;;;;;4.40;4.00;;;32.30;29.60;;;;;;5094490;28;20178;-86
2022/09/04 13:01:10;;;;;;;3.97;3.78;;;31.50;31.40;;;;;;5087191;28;20176;-86
2022/09/04 13:03:54;;;;;;;4.00;3.80;;;31.40;33.80;;;;;;5086740;28;20197;-86
2022/09/04 13:06:38;;;;;;;3.80;3.60;;;31.60;32.40;;;;;;5092765;28;20202;-87
2022/09/04 13:09:20;;;;;;;3.45;3.15;;;32.40;28.90;;;;;;5086654;28;20544;-85
2022/09/04 13:12:08;;;;;;;3.78;3.58;;;32.60;28.50;;;;;;5086960;28;20219;-86
2022/09/04 13:14:46;;;;;;;3.78;3.58;;;33.10;28.50;;;;;;5090169;28;20290;-87
2022/09/04 13:17:26;;;;;;;4.15;3.78;;;33.30;28.20;;;;;;5088286;28;20238;-87
2022/09/04 13:20:27;;;;;;;4.25;3.85;;;33.60;28.00;;;;;;5092106;28;20188;-86
2022/09/04 13:23:12;;;;;;;3.95;3.60;;;33.20;28.50;;;;;;5066287;28;20592;-86
2022/09/04 13:26:04;;;;;;;3.97;3.78;;;33.40;28.80;;;;;;5074258;28;20901;-87
2022/09/04 13:28:49;;;;;;;3.90;3.70;;;33.70;27.10;;;;;;5082259;28;20215;-86
2022/09/04 13:31:26;;;;;;;4.10;3.90;;;33.60;27.60;;;;;;5079256;28;20273;-87
2022/09/04 13:34:20;;;;;;;4.63;3.72;;;34.00;26.60;;;;;;5085473;28;20191;-88
2022/09/04 13:37:22;;;;;;;3.80;3.50;;;33.40;27.20;;;;;;5090472;28;20838;-86
2022/09/04 13:40:01;;;;;;;4.20;3.90;;;32.90;27.60;;;;;;5070435;28;20672;-86
2022/09/04 13:42:36;;;;;;;3.95;3.75;;;32.90;27.20;;;;;;5085256;28;20187;-86
2022/09/04 13:45:22;;;;;;;3.95;3.70;;;33.00;27.80;;;;;;5089748;28;20198;-86
2022/09/04 13:48:08;;;;;;;3.90;3.70;;;33.30;28.00;;;;;;5088065;28;20187;-86
2022/09/04 13:50:41;;;;;;;4.07;3.78;;;33.80;26.50;;;;;;5084320;28;20181;-86
2022/09/04 13:53:26;;;;;;;4.03;3.80;;;33.60;26.60;;;;;;5083442;28;20648;-86
2022/09/04 13:55:58;;;;;;;4.03;3.83;;;34.20;26.20;;;;;;5090388;28;20215;-87
2022/09/04 13:58:31;;;;;;;4.38;4.15;;;33.90;26.70;;;;;;5087113;28;20186;-89
2022/09/04 14:01:01;;;;;;;4.15;3.95;;;33.50;27.60;;;;;;5083567;28;20206;-87
2022/09/04 14:03:39;;;;;;;4.05;3.85;;;33.90;26.70;;;;;;5085382;28;20179;-87
2022/09/04 14:06:10;;;;;;;4.32;4.03;;;34.20;25.50;;;;;;5083093;28;20210;-88
2022/09/04 14:08:38;;;;;;;4.50;4.22;;;34.40;26.60;;;;;;5084959;28;20174;-87
2022/09/04 14:11:26;;;;;;;4.57;4.30;;;35.00;26.20;;;;;;5078226;28;20301;-86
2022/09/04 14:14:29;;;;;;;4.63;4.38;;;35.40;25.50;;;;;;5095911;28;20190;-87
2022/09/04 14:16:58;;;;;;;4.80;4.40;;;35.60;26.10;;;;;;5099157;28;20262;-88
2022/09/04 14:19:25;;;;;;;4.50;4.30;;;35.60;25.90;;;;;;5083186;28;20562;-86
2022/09/04 14:22:23;;;;;;;4.53;4.32;;;35.40;25.50;;;;;;5083992;28;20187;-88
2022/09/04 14:24:48;;;;;;;4.80;4.50;;;35.70;24.50;;;;;;5052917;28;20226;-87
2022/09/04 14:27:43;;;;;;;4.25;4.05;;;35.80;25.00;;;;;;5085720;28;20245;-86